sensor_id;sensor_type;location;lat;lon;timestamp;P1;durP1;ratioP1;P2;durP2;ratioP2
7829;SDS011;3960;51.86894000;5.39848000;2023-02-23T00:00:23;123.75;;;47.90;;
7829;SDS011;3960;51.86894000;5.39848000;2023-02-23T00:02:57;110.90;;;45.85;;
7829;SDS011;3960;51.86894000;5.39848000;2023-02-23T00:05:25;119.78;;;48.42;;
7829;SDS011;3960;51.86894000;5.39848000;2023-02-23T00:07:51;118.30;;;45.20;;
7829;SDS011;3960;51.86894000;5.39848000;2023-02-23T00:10:18;116.50;;;45.55;;
7829;SDS011;3960;51.86894000;5.39848000;2023-02-23T00:12:45;123.07;;;44.20;;
7829;SDS011;3960;51.86894000;5.39848000;2023-02-23T00:15:13;125.10;;;48.60;;
7829;SDS011;3960;51.86894000;5.39848000;2023-02-23T00:17:39;117.50;;;46.15;;
7829;SDS011;3960;51.86894000;5.39848000;2023-02-23T00:20:06;130.48;;;48.60;;
7829;SDS011;3960;51.86894000;5.39848000;2023-02-23T00:22:37;126.73;;;48.23;;
7829;SDS011;3960;51.86894000;5.39848000;2023-02-23T00:25:04;126.60;;;46.90;;
7829;SDS011;3960;51.86894000;5.39848000;2023-02-23T00:27:33;117.88;;;45.90;;
7829;SDS011;3960;51.86894000;5.39848000;2023-02-23T00:30:00;124.20;;;45.28;;
7829;SDS011;3960;51.86894000;5.39848000;2023-02-23T00:32:25;115.57;;;45.45;;
7829;SDS011;3960;51.86894000;5.39848000;2023-02-23T00:34:50;111.50;;;42.47;;
7829;SDS011;3960;51.86894000;5.39848000;2023-02-23T00:37:16;122.93;;;43.75;;
7829;SDS011;3960;51.86894000;5.39848000;2023-02-23T00:39:42;115.68;;;43.35;;
7829;SDS011;3960;51.86894000;5.39848000;2023-02-23T00:42:08;113.70;;;41.80;;
7829;SDS011;3960;51.86894000;5.39848000;2023-02-23T00:44:34;115.53;;;43.97;;
7829;SDS011;3960;51.86894000;5.39848000;2023-02-23T00:47:00;119.72;;;42.88;;
7829;SDS011;3960;51.86894000;5.39848000;2023-02-23T00:49:25;111.45;;;41.30;;
7829;SDS011;3960;51.86894000;5.39848000;2023-02-23T00:51:50;110.05;;;40.67;;
7829;SDS011;3960;51.86894000;5.39848000;2023-02-23T00:54:17;113.60;;;41.35;;
7829;SDS011;3960;51.86894000;5.39848000;2023-02-23T00:56:43;113.30;;;43.03;;
7829;SDS011;3960;51.86894000;5.39848000;2023-02-23T00:59:09;115.00;;;41.60;;
7829;SDS011;3960;51.86894000;5.39848000;2023-02-23T01:01:36;116.47;;;43.63;;
7829;SDS011;3960;51.86894000;5.39848000;2023-02-23T01:04:02;115.68;;;41.08;;
7829;SDS011;3960;51.86894000;5.39848000;2023-02-23T01:06:28;108.25;;;43.53;;
7829;SDS011;3960;51.86894000;5.39848000;2023-02-23T01:08:53;120.28;;;45.25;;
7829;SDS011;3960;51.86894000;5.39848000;2023-02-23T01:11:22;122.43;;;46.83;;
7829;SDS011;3960;51.86894000;5.39848000;2023-02-23T01:13:52;131.55;;;47.88;;
7829;SDS011;3960;51.86894000;5.39848000;2023-02-23T01:16:20;118.30;;;45.33;;
7829;SDS011;3960;51.86894000;5.39848000;2023-02-23T01:18:47;121.00;;;45.33;;
7829;SDS011;3960;51.86894000;5.39848000;2023-02-23T01:21:20;136.02;;;47.40;;
7829;SDS011;3960;51.86894000;5.39848000;2023-02-23T01:23:47;131.10;;;46.28;;
7829;SDS011;3960;51.86894000;5.39848000;2023-02-23T01:26:17;135.40;;;46.25;;
7829;SDS011;3960;51.86894000;5.39848000;2023-02-23T01:28:57;129.20;;;46.55;;
7829;SDS011;3960;51.86894000;5.39848000;2023-02-23T01:31:24;131.75;;;46.88;;
7829;SDS011;3960;51.86894000;5.39848000;2023-02-23T01:33:57;127.90;;;46.15;;
7829;SDS011;3960;51.86894000;5.39848000;2023-02-23T01:36:24;138.85;;;49.78;;
7829;SDS011;3960;51.86894000;5.39848000;2023-02-23T01:38:53;137.38;;;48.38;;
7829;SDS011;3960;51.86894000;5.39848000;2023-02-23T01:41:20;130.23;;;47.35;;
7829;SDS011;3960;51.86894000;5.39848000;2023-02-23T01:46:27;132.50;;;47.08;;
7829;SDS011;3960;51.86894000;5.39848000;2023-02-23T01:48:59;131.00;;;47.38;;
7829;SDS011;3960;51.86894000;5.39848000;2023-02-23T01:51:29;146.63;;;49.00;;
7829;SDS011;3960;51.86894000;5.39848000;2023-02-23T01:53:58;128.45;;;46.28;;
7829;SDS011;3960;51.86894000;5.39848000;2023-02-23T01:56:30;128.32;;;46.42;;
7829;SDS011;3960;51.86894000;5.39848000;2023-02-23T01:58:58;132.15;;;47.00;;
7829;SDS011;3960;51.86894000;5.39848000;2023-02-23T02:01:28;143.52;;;47.17;;
7829;SDS011;3960;51.86894000;5.39848000;2023-02-23T02:03:55;130.40;;;46.83;;
7829;SDS011;3960;51.86894000;5.39848000;2023-02-23T02:06:23;141.48;;;47.30;;
7829;SDS011;3960;51.86894000;5.39848000;2023-02-23T02:08:52;151.27;;;49.47;;
7829;SDS011;3960;51.86894000;5.39848000;2023-02-23T02:11:20;141.50;;;48.40;;
7829;SDS011;3960;51.86894000;5.39848000;2023-02-23T02:13:56;149.73;;;49.00;;
7829;SDS011;3960;51.86894000;5.39848000;2023-02-23T02:16:35;144.07;;;49.08;;
7829;SDS011;3960;51.86894000;5.39848000;2023-02-23T02:19:50;155.27;;;49.53;;
7829;SDS011;3960;51.86894000;5.39848000;2023-02-23T02:41:09;153.40;;;49.92;;
7829;SDS011;3960;51.86894000;5.39848000;2023-02-23T02:46:32;161.15;;;51.05;;
7829;SDS011;3960;51.86894000;5.39848000;2023-02-23T02:52:46;144.57;;;49.13;;
7829;SDS011;3960;51.86894000;5.39848000;2023-02-23T02:55:14;151.88;;;48.90;;
7829;SDS011;3960;51.86894000;5.39848000;2023-02-23T02:57:43;159.35;;;50.38;;
7829;SDS011;3960;51.86894000;5.39848000;2023-02-23T03:00:27;154.60;;;48.38;;
7829;SDS011;3960;51.86894000;5.39848000;2023-02-23T03:03:26;166.65;;;50.70;;
7829;SDS011;3960;51.86894000;5.39848000;2023-02-23T03:06:11;164.07;;;50.42;;
7829;SDS011;3960;51.86894000;5.39848000;2023-02-23T03:09:07;163.32;;;50.75;;
7829;SDS011;3960;51.86894000;5.39848000;2023-02-23T03:12:22;161.48;;;49.85;;
7829;SDS011;3960;51.86894000;5.39848000;2023-02-23T03:21:17;170.05;;;51.78;;
7829;SDS011;3960;51.86894000;5.39848000;2023-02-23T03:24:47;156.80;;;49.47;;
7829;SDS011;3960;51.86894000;5.39848000;2023-02-23T03:27:45;151.40;;;47.88;;
7829;SDS011;3960;51.86894000;5.39848000;2023-02-23T03:33:29;163.38;;;49.80;;
7829;SDS011;3960;51.86894000;5.39848000;2023-02-23T03:36:24;159.13;;;48.10;;
7829;SDS011;3960;51.86894000;5.39848000;2023-02-23T03:39:12;157.13;;;49.30;;
7829;SDS011;3960;51.86894000;5.39848000;2023-02-23T03:42:01;163.38;;;48.10;;
7829;SDS011;3960;51.86894000;5.39848000;2023-02-23T03:44:49;169.95;;;51.03;;
7829;SDS011;3960;51.86894000;5.39848000;2023-02-23T03:47:37;160.90;;;50.33;;
7829;SDS011;3960;51.86894000;5.39848000;2023-02-23T03:50:29;161.93;;;49.35;;
7829;SDS011;3960;51.86894000;5.39848000;2023-02-23T03:53:17;168.15;;;50.30;;
7829;SDS011;3960;51.86894000;5.39848000;2023-02-23T03:56:07;171.18;;;49.10;;
7829;SDS011;3960;51.86894000;5.39848000;2023-02-23T03:58:54;170.32;;;48.58;;
7829;SDS011;3960;51.86894000;5.39848000;2023-02-23T04:01:43;171.48;;;50.83;;
7829;SDS011;3960;51.86894000;5.39848000;2023-02-23T04:04:28;173.00;;;51.22;;
7829;SDS011;3960;51.86894000;5.39848000;2023-02-23T04:07:15;176.52;;;49.92;;
7829;SDS011;3960;51.86894000;5.39848000;2023-02-23T04:10:01;183.82;;;51.17;;
7829;SDS011;3960;51.86894000;5.39848000;2023-02-23T04:15:47;158.57;;;48.97;;
7829;SDS011;3960;51.86894000;5.39848000;2023-02-23T04:18:15;173.98;;;52.22;;
7829;SDS011;3960;51.86894000;5.39848000;2023-02-23T04:20:45;173.45;;;52.15;;
7829;SDS011;3960;51.86894000;5.39848000;2023-02-23T04:23:10;165.43;;;48.63;;
7829;SDS011;3960;51.86894000;5.39848000;2023-02-23T04:25:36;171.02;;;47.90;;
7829;SDS011;3960;51.86894000;5.39848000;2023-02-23T04:28:01;176.13;;;51.28;;
7829;SDS011;3960;51.86894000;5.39848000;2023-02-23T04:30:27;171.82;;;49.25;;
7829;SDS011;3960;51.86894000;5.39848000;2023-02-23T04:32:53;173.43;;;47.97;;
7829;SDS011;3960;51.86894000;5.39848000;2023-02-23T04:35:19;173.65;;;50.95;;
7829;SDS011;3960;51.86894000;5.39848000;2023-02-23T04:37:45;177.93;;;49.30;;
7829;SDS011;3960;51.86894000;5.39848000;2023-02-23T04:40:10;180.05;;;47.97;;
7829;SDS011;3960;51.86894000;5.39848000;2023-02-23T04:42:37;164.38;;;46.67;;
7829;SDS011;3960;51.86894000;5.39848000;2023-02-23T04:45:04;153.38;;;45.60;;
7829;SDS011;3960;51.86894000;5.39848000;2023-02-23T04:47:30;158.00;;;44.58;;
7829;SDS011;3960;51.86894000;5.39848000;2023-02-23T04:49:55;151.13;;;44.72;;
7829;SDS011;3960;51.86894000;5.39848000;2023-02-23T04:52:20;159.07;;;43.67;;
7829;SDS011;3960;51.86894000;5.39848000;2023-02-23T04:54:46;129.95;;;40.70;;
7829;SDS011;3960;51.86894000;5.39848000;2023-02-23T04:57:12;143.68;;;41.00;;
7829;SDS011;3960;51.86894000;5.39848000;2023-02-23T04:59:37;149.30;;;41.08;;
7829;SDS011;3960;51.86894000;5.39848000;2023-02-23T05:02:02;145.05;;;42.70;;
7829;SDS011;3960;51.86894000;5.39848000;2023-02-23T05:04:28;155.00;;;43.50;;
7829;SDS011;3960;51.86894000;5.39848000;2023-02-23T05:06:53;151.27;;;42.38;;
7829;SDS011;3960;51.86894000;5.39848000;2023-02-23T05:09:18;152.05;;;43.42;;
7829;SDS011;3960;51.86894000;5.39848000;2023-02-23T05:11:44;154.40;;;42.90;;
7829;SDS011;3960;51.86894000;5.39848000;2023-02-23T05:14:10;145.70;;;42.42;;
7829;SDS011;3960;51.86894000;5.39848000;2023-02-23T05:16:36;157.75;;;43.85;;
7829;SDS011;3960;51.86894000;5.39848000;2023-02-23T05:19:02;158.77;;;43.88;;
7829;SDS011;3960;51.86894000;5.39848000;2023-02-23T05:21:27;166.60;;;44.45;;
7829;SDS011;3960;51.86894000;5.39848000;2023-02-23T05:23:52;159.45;;;44.47;;
7829;SDS011;3960;51.86894000;5.39848000;2023-02-23T05:26:18;176.93;;;46.10;;
7829;SDS011;3960;51.86894000;5.39848000;2023-02-23T05:28:43;172.07;;;44.00;;
7829;SDS011;3960;51.86894000;5.39848000;2023-02-23T05:31:09;172.05;;;45.85;;
7829;SDS011;3960;51.86894000;5.39848000;2023-02-23T05:33:35;175.07;;;44.67;;
7829;SDS011;3960;51.86894000;5.39848000;2023-02-23T05:36:06;185.23;;;48.97;;
7829;SDS011;3960;51.86894000;5.39848000;2023-02-23T05:38:35;175.85;;;47.65;;
7829;SDS011;3960;51.86894000;5.39848000;2023-02-23T05:41:05;182.35;;;48.65;;
7829;SDS011;3960;51.86894000;5.39848000;2023-02-23T05:43:31;194.45;;;50.00;;
7829;SDS011;3960;51.86894000;5.39848000;2023-02-23T05:45:56;185.90;;;49.30;;
7829;SDS011;3960;51.86894000;5.39848000;2023-02-23T05:48:21;182.38;;;48.03;;
7829;SDS011;3960;51.86894000;5.39848000;2023-02-23T05:50:47;200.70;;;51.42;;
7829;SDS011;3960;51.86894000;5.39848000;2023-02-23T05:53:13;174.30;;;48.95;;
7829;SDS011;3960;51.86894000;5.39848000;2023-02-23T05:55:38;201.10;;;49.95;;
7829;SDS011;3960;51.86894000;5.39848000;2023-02-23T05:58:04;182.43;;;49.40;;
7829;SDS011;3960;51.86894000;5.39848000;2023-02-23T06:00:29;209.15;;;50.90;;
7829;SDS011;3960;51.86894000;5.39848000;2023-02-23T06:02:55;192.75;;;50.10;;
7829;SDS011;3960;51.86894000;5.39848000;2023-02-23T06:05:20;185.35;;;49.05;;
7829;SDS011;3960;51.86894000;5.39848000;2023-02-23T06:07:45;198.88;;;49.30;;
7829;SDS011;3960;51.86894000;5.39848000;2023-02-23T06:10:11;188.68;;;47.72;;
7829;SDS011;3960;51.86894000;5.39848000;2023-02-23T06:12:39;176.85;;;50.85;;
7829;SDS011;3960;51.86894000;5.39848000;2023-02-23T06:15:05;199.95;;;49.95;;
7829;SDS011;3960;51.86894000;5.39848000;2023-02-23T06:17:34;199.77;;;50.08;;
7829;SDS011;3960;51.86894000;5.39848000;2023-02-23T06:19:59;200.38;;;50.10;;
7829;SDS011;3960;51.86894000;5.39848000;2023-02-23T06:22:29;195.82;;;49.30;;
7829;SDS011;3960;51.86894000;5.39848000;2023-02-23T06:24:54;200.80;;;49.95;;
7829;SDS011;3960;51.86894000;5.39848000;2023-02-23T06:27:22;199.77;;;51.50;;
7829;SDS011;3960;51.86894000;5.39848000;2023-02-23T06:29:47;188.18;;;50.35;;
7829;SDS011;3960;51.86894000;5.39848000;2023-02-23T06:32:13;206.75;;;50.50;;
7829;SDS011;3960;51.86894000;5.39848000;2023-02-23T06:34:38;194.18;;;50.08;;
7829;SDS011;3960;51.86894000;5.39848000;2023-02-23T06:37:04;194.23;;;50.08;;
7829;SDS011;3960;51.86894000;5.39848000;2023-02-23T06:39:30;195.73;;;50.20;;
7829;SDS011;3960;51.86894000;5.39848000;2023-02-23T06:41:55;199.70;;;49.42;;
7829;SDS011;3960;51.86894000;5.39848000;2023-02-23T06:44:21;179.73;;;48.90;;
7829;SDS011;3960;51.86894000;5.39848000;2023-02-23T06:46:46;198.48;;;47.20;;
7829;SDS011;3960;51.86894000;5.39848000;2023-02-23T06:49:11;202.48;;;50.90;;
7829;SDS011;3960;51.86894000;5.39848000;2023-02-23T06:51:37;204.77;;;50.65;;
7829;SDS011;3960;51.86894000;5.39848000;2023-02-23T06:54:02;192.93;;;49.42;;
7829;SDS011;3960;51.86894000;5.39848000;2023-02-23T06:56:28;207.82;;;51.40;;
7829;SDS011;3960;51.86894000;5.39848000;2023-02-23T06:58:53;196.48;;;49.88;;
7829;SDS011;3960;51.86894000;5.39848000;2023-02-23T07:01:19;198.85;;;48.90;;
7829;SDS011;3960;51.86894000;5.39848000;2023-02-23T07:03:45;221.50;;;50.60;;
7829;SDS011;3960;51.86894000;5.39848000;2023-02-23T07:06:10;212.10;;;49.65;;
7829;SDS011;3960;51.86894000;5.39848000;2023-02-23T07:08:36;202.65;;;49.78;;
7829;SDS011;3960;51.86894000;5.39848000;2023-02-23T07:11:13;189.45;;;48.58;;
7829;SDS011;3960;51.86894000;5.39848000;2023-02-23T07:13:41;206.00;;;49.95;;
7829;SDS011;3960;51.86894000;5.39848000;2023-02-23T07:16:07;209.50;;;48.15;;
7829;SDS011;3960;51.86894000;5.39848000;2023-02-23T07:18:33;210.88;;;50.75;;
7829;SDS011;3960;51.86894000;5.39848000;2023-02-23T07:20:59;208.77;;;50.15;;
7829;SDS011;3960;51.86894000;5.39848000;2023-02-23T07:23:24;194.25;;;48.58;;
7829;SDS011;3960;51.86894000;5.39848000;2023-02-23T07:25:50;207.13;;;49.97;;
7829;SDS011;3960;51.86894000;5.39848000;2023-02-23T07:28:16;211.20;;;50.38;;
7829;SDS011;3960;51.86894000;5.39848000;2023-02-23T07:30:42;210.52;;;51.08;;
7829;SDS011;3960;51.86894000;5.39848000;2023-02-23T07:33:07;198.52;;;50.05;;
7829;SDS011;3960;51.86894000;5.39848000;2023-02-23T07:35:33;198.82;;;49.83;;
7829;SDS011;3960;51.86894000;5.39848000;2023-02-23T07:37:58;204.80;;;51.15;;
7829;SDS011;3960;51.86894000;5.39848000;2023-02-23T07:40:23;206.98;;;50.50;;
7829;SDS011;3960;51.86894000;5.39848000;2023-02-23T07:42:50;221.98;;;50.05;;
7829;SDS011;3960;51.86894000;5.39848000;2023-02-23T07:45:15;191.55;;;48.63;;
7829;SDS011;3960;51.86894000;5.39848000;2023-02-23T07:47:41;189.57;;;47.08;;
7829;SDS011;3960;51.86894000;5.39848000;2023-02-23T07:50:07;200.88;;;46.53;;
7829;SDS011;3960;51.86894000;5.39848000;2023-02-23T07:52:37;187.98;;;45.30;;
7829;SDS011;3960;51.86894000;5.39848000;2023-02-23T07:55:04;188.05;;;48.88;;
7829;SDS011;3960;51.86894000;5.39848000;2023-02-23T07:57:30;199.82;;;50.97;;
7829;SDS011;3960;51.86894000;5.39848000;2023-02-23T07:59:55;192.25;;;50.45;;
7829;SDS011;3960;51.86894000;5.39848000;2023-02-23T08:02:24;193.65;;;48.20;;
7829;SDS011;3960;51.86894000;5.39848000;2023-02-23T08:04:49;204.65;;;48.67;;
7829;SDS011;3960;51.86894000;5.39848000;2023-02-23T08:07:18;199.65;;;49.58;;
7829;SDS011;3960;51.86894000;5.39848000;2023-02-23T08:09:43;206.45;;;48.20;;
7829;SDS011;3960;51.86894000;5.39848000;2023-02-23T08:12:08;197.65;;;49.65;;
7829;SDS011;3960;51.86894000;5.39848000;2023-02-23T08:14:34;217.30;;;48.88;;
7829;SDS011;3960;51.86894000;5.39848000;2023-02-23T08:16:59;200.05;;;49.00;;
7829;SDS011;3960;51.86894000;5.39848000;2023-02-23T08:19:25;208.20;;;50.33;;
7829;SDS011;3960;51.86894000;5.39848000;2023-02-23T08:21:51;198.25;;;50.28;;
7829;SDS011;3960;51.86894000;5.39848000;2023-02-23T08:24:17;196.82;;;49.60;;
7829;SDS011;3960;51.86894000;5.39848000;2023-02-23T08:26:42;191.90;;;47.30;;
7829;SDS011;3960;51.86894000;5.39848000;2023-02-23T08:29:07;199.13;;;48.45;;
7829;SDS011;3960;51.86894000;5.39848000;2023-02-23T08:31:33;191.07;;;47.58;;
7829;SDS011;3960;51.86894000;5.39848000;2023-02-23T08:33:59;177.00;;;47.03;;
7829;SDS011;3960;51.86894000;5.39848000;2023-02-23T08:36:25;183.45;;;46.67;;
7829;SDS011;3960;51.86894000;5.39848000;2023-02-23T08:38:50;174.20;;;44.38;;
7829;SDS011;3960;51.86894000;5.39848000;2023-02-23T08:41:18;166.70;;;43.53;;
7829;SDS011;3960;51.86894000;5.39848000;2023-02-23T08:43:44;167.80;;;43.40;;
7829;SDS011;3960;51.86894000;5.39848000;2023-02-23T08:46:09;161.75;;;42.30;;
7829;SDS011;3960;51.86894000;5.39848000;2023-02-23T08:48:35;159.70;;;43.40;;
7829;SDS011;3960;51.86894000;5.39848000;2023-02-23T08:51:03;154.07;;;43.72;;
7829;SDS011;3960;51.86894000;5.39848000;2023-02-23T08:53:28;172.73;;;44.20;;
7829;SDS011;3960;51.86894000;5.39848000;2023-02-23T08:55:55;170.68;;;44.40;;
7829;SDS011;3960;51.86894000;5.39848000;2023-02-23T08:58:21;173.25;;;43.90;;
7829;SDS011;3960;51.86894000;5.39848000;2023-02-23T09:00:47;171.68;;;45.30;;
7829;SDS011;3960;51.86894000;5.39848000;2023-02-23T09:03:12;176.25;;;42.97;;
7829;SDS011;3960;51.86894000;5.39848000;2023-02-23T09:05:38;162.52;;;41.40;;
7829;SDS011;3960;51.86894000;5.39848000;2023-02-23T09:08:03;158.02;;;40.90;;
7829;SDS011;3960;51.86894000;5.39848000;2023-02-23T09:10:29;145.25;;;39.10;;
7829;SDS011;3960;51.86894000;5.39848000;2023-02-23T09:12:56;145.88;;;37.83;;
7829;SDS011;3960;51.86894000;5.39848000;2023-02-23T09:15:21;139.05;;;37.28;;
7829;SDS011;3960;51.86894000;5.39848000;2023-02-23T09:17:46;139.90;;;37.38;;
7829;SDS011;3960;51.86894000;5.39848000;2023-02-23T09:20:13;143.40;;;39.72;;
7829;SDS011;3960;51.86894000;5.39848000;2023-02-23T09:22:43;138.27;;;37.55;;
7829;SDS011;3960;51.86894000;5.39848000;2023-02-23T09:25:13;118.43;;;36.03;;
7829;SDS011;3960;51.86894000;5.39848000;2023-02-23T09:27:42;121.30;;;35.67;;
7829;SDS011;3960;51.86894000;5.39848000;2023-02-23T09:30:08;131.85;;;38.35;;
7829;SDS011;3960;51.86894000;5.39848000;2023-02-23T09:32:33;139.10;;;37.88;;
7829;SDS011;3960;51.86894000;5.39848000;2023-02-23T09:35:00;136.13;;;37.70;;
7829;SDS011;3960;51.86894000;5.39848000;2023-02-23T09:37:25;122.88;;;36.78;;
7829;SDS011;3960;51.86894000;5.39848000;2023-02-23T09:39:50;137.50;;;36.88;;
7829;SDS011;3960;51.86894000;5.39848000;2023-02-23T09:42:19;135.32;;;37.47;;
7829;SDS011;3960;51.86894000;5.39848000;2023-02-23T09:47:39;123.35;;;37.03;;
7829;SDS011;3960;51.86894000;5.39848000;2023-02-23T09:50:19;132.18;;;37.58;;
7829;SDS011;3960;51.86894000;5.39848000;2023-02-23T09:52:47;115.47;;;34.40;;
7829;SDS011;3960;51.86894000;5.39848000;2023-02-23T09:55:16;127.18;;;36.85;;
7829;SDS011;3960;51.86894000;5.39848000;2023-02-23T09:57:43;113.10;;;33.42;;
7829;SDS011;3960;51.86894000;5.39848000;2023-02-23T10:00:24;104.65;;;32.55;;
7829;SDS011;3960;51.86894000;5.39848000;2023-02-23T10:03:05;108.18;;;34.00;;
7829;SDS011;3960;51.86894000;5.39848000;2023-02-23T10:05:40;98.70;;;33.45;;
7829;SDS011;3960;51.86894000;5.39848000;2023-02-23T10:13:18;107.22;;;34.95;;
7829;SDS011;3960;51.86894000;5.39848000;2023-02-23T10:18:28;104.88;;;35.47;;
7829;SDS011;3960;51.86894000;5.39848000;2023-02-23T10:21:05;96.88;;;32.97;;
7829;SDS011;3960;51.86894000;5.39848000;2023-02-23T10:23:40;97.90;;;33.15;;
7829;SDS011;3960;51.86894000;5.39848000;2023-02-23T10:26:13;85.40;;;31.88;;
7829;SDS011;3960;51.86894000;5.39848000;2023-02-23T10:28:42;97.43;;;31.85;;
7829;SDS011;3960;51.86894000;5.39848000;2023-02-23T10:31:25;84.68;;;29.10;;
7829;SDS011;3960;51.86894000;5.39848000;2023-02-23T10:34:01;78.53;;;30.83;;
7829;SDS011;3960;51.86894000;5.39848000;2023-02-23T10:36:37;86.95;;;32.55;;
7829;SDS011;3960;51.86894000;5.39848000;2023-02-23T10:39:12;84.53;;;32.13;;
7829;SDS011;3960;51.86894000;5.39848000;2023-02-23T10:41:37;82.10;;;31.33;;
7829;SDS011;3960;51.86894000;5.39848000;2023-02-23T10:44:04;70.55;;;27.95;;
7829;SDS011;3960;51.86894000;5.39848000;2023-02-23T10:46:35;64.60;;;27.90;;
7829;SDS011;3960;51.86894000;5.39848000;2023-02-23T10:49:03;68.10;;;27.38;;
7829;SDS011;3960;51.86894000;5.39848000;2023-02-23T10:51:31;69.32;;;24.63;;
7829;SDS011;3960;51.86894000;5.39848000;2023-02-23T10:54:13;63.42;;;25.75;;
7829;SDS011;3960;51.86894000;5.39848000;2023-02-23T10:57:02;61.05;;;26.67;;
7829;SDS011;3960;51.86894000;5.39848000;2023-02-23T10:59:29;55.60;;;23.88;;
7829;SDS011;3960;51.86894000;5.39848000;2023-02-23T11:01:55;58.40;;;23.05;;
7829;SDS011;3960;51.86894000;5.39848000;2023-02-23T11:04:25;51.55;;;21.35;;
7829;SDS011;3960;51.86894000;5.39848000;2023-02-23T11:07:06;54.58;;;22.75;;
7829;SDS011;3960;51.86894000;5.39848000;2023-02-23T11:09:33;50.23;;;22.63;;
7829;SDS011;3960;51.86894000;5.39848000;2023-02-23T11:14:26;46.85;;;21.15;;
7829;SDS011;3960;51.86894000;5.39848000;2023-02-23T11:16:54;44.80;;;20.92;;
7829;SDS011;3960;51.86894000;5.39848000;2023-02-23T11:19:23;44.33;;;20.00;;
7829;SDS011;3960;51.86894000;5.39848000;2023-02-23T11:21:58;44.72;;;19.95;;
7829;SDS011;3960;51.86894000;5.39848000;2023-02-23T11:24:25;42.60;;;20.75;;
7829;SDS011;3960;51.86894000;5.39848000;2023-02-23T11:26:54;40.67;;;19.25;;
7829;SDS011;3960;51.86894000;5.39848000;2023-02-23T11:29:33;38.15;;;18.98;;
7829;SDS011;3960;51.86894000;5.39848000;2023-02-23T11:32:25;41.42;;;19.23;;
7829;SDS011;3960;51.86894000;5.39848000;2023-02-23T11:37:44;40.10;;;19.48;;
7829;SDS011;3960;51.86894000;5.39848000;2023-02-23T11:42:50;38.58;;;19.13;;
7829;SDS011;3960;51.86894000;5.39848000;2023-02-23T11:45:18;36.85;;;18.90;;
7829;SDS011;3960;51.86894000;5.39848000;2023-02-23T11:47:45;40.22;;;19.73;;
7829;SDS011;3960;51.86894000;5.39848000;2023-02-23T11:50:19;41.80;;;20.60;;
7829;SDS011;3960;51.86894000;5.39848000;2023-02-23T11:52:48;41.50;;;20.15;;
7829;SDS011;3960;51.86894000;5.39848000;2023-02-23T11:55:20;36.72;;;18.95;;
7829;SDS011;3960;51.86894000;5.39848000;2023-02-23T11:57:46;37.47;;;18.67;;
7829;SDS011;3960;51.86894000;5.39848000;2023-02-23T12:00:24;39.15;;;18.95;;
7829;SDS011;3960;51.86894000;5.39848000;2023-02-23T12:02:55;34.00;;;19.60;;
7829;SDS011;3960;51.86894000;5.39848000;2023-02-23T12:05:30;36.67;;;18.90;;
7829;SDS011;3960;51.86894000;5.39848000;2023-02-23T12:08:13;30.70;;;16.98;;
7829;SDS011;3960;51.86894000;5.39848000;2023-02-23T12:10:44;30.05;;;16.80;;
7829;SDS011;3960;51.86894000;5.39848000;2023-02-23T12:15:57;25.58;;;14.27;;
7829;SDS011;3960;51.86894000;5.39848000;2023-02-23T12:21:03;19.98;;;13.15;;
7829;SDS011;3960;51.86894000;5.39848000;2023-02-23T12:23:39;19.58;;;12.82;;
7829;SDS011;3960;51.86894000;5.39848000;2023-02-23T12:26:17;21.25;;;12.98;;
7829;SDS011;3960;51.86894000;5.39848000;2023-02-23T12:28:59;24.25;;;14.63;;
7829;SDS011;3960;51.86894000;5.39848000;2023-02-23T12:31:41;21.65;;;12.20;;
7829;SDS011;3960;51.86894000;5.39848000;2023-02-23T12:39:36;16.33;;;10.85;;
7829;SDS011;3960;51.86894000;5.39848000;2023-02-23T12:42:16;17.00;;;11.05;;
7829;SDS011;3960;51.86894000;5.39848000;2023-02-23T12:44:53;17.67;;;11.23;;
7829;SDS011;3960;51.86894000;5.39848000;2023-02-23T12:47:48;21.27;;;13.63;;
7829;SDS011;3960;51.86894000;5.39848000;2023-02-23T12:50:30;18.88;;;10.20;;
7829;SDS011;3960;51.86894000;5.39848000;2023-02-23T12:53:03;22.00;;;14.68;;
7829;SDS011;3960;51.86894000;5.39848000;2023-02-23T12:55:42;21.27;;;14.13;;
7829;SDS011;3960;51.86894000;5.39848000;2023-02-23T13:03:54;21.70;;;13.45;;
7829;SDS011;3960;51.86894000;5.39848000;2023-02-23T13:12:13;25.17;;;16.23;;
7829;SDS011;3960;51.86894000;5.39848000;2023-02-23T13:14:52;34.08;;;19.50;;
7829;SDS011;3960;51.86894000;5.39848000;2023-02-23T13:17:37;37.78;;;21.95;;
7829;SDS011;3960;51.86894000;5.39848000;2023-02-23T13:31:22;28.02;;;15.02;;
7829;SDS011;3960;51.86894000;5.39848000;2023-02-23T13:33:50;31.45;;;13.70;;
7829;SDS011;3960;51.86894000;5.39848000;2023-02-23T13:36:18;26.75;;;14.15;;
7829;SDS011;3960;51.86894000;5.39848000;2023-02-23T13:48:00;25.48;;;13.25;;
7829;SDS011;3960;51.86894000;5.39848000;2023-02-23T13:50:35;25.08;;;13.27;;
7829;SDS011;3960;51.86894000;5.39848000;2023-02-23T13:53:24;21.42;;;11.20;;
7829;SDS011;3960;51.86894000;5.39848000;2023-02-23T13:55:57;23.98;;;11.50;;
7829;SDS011;3960;51.86894000;5.39848000;2023-02-23T13:58:27;18.85;;;10.90;;
7829;SDS011;3960;51.86894000;5.39848000;2023-02-23T14:01:13;24.17;;;12.13;;
7829;SDS011;3960;51.86894000;5.39848000;2023-02-23T14:03:46;23.17;;;10.60;;
7829;SDS011;3960;51.86894000;5.39848000;2023-02-23T14:06:17;22.67;;;10.80;;
7829;SDS011;3960;51.86894000;5.39848000;2023-02-23T14:08:45;19.52;;;8.90;;
7829;SDS011;3960;51.86894000;5.39848000;2023-02-23T14:22:08;15.68;;;8.85;;
7829;SDS011;3960;51.86894000;5.39848000;2023-02-23T14:24:39;16.77;;;8.05;;
7829;SDS011;3960;51.86894000;5.39848000;2023-02-23T14:32:52;17.15;;;9.00;;
7829;SDS011;3960;51.86894000;5.39848000;2023-02-23T14:38:02;14.27;;;7.90;;
7829;SDS011;3960;51.86894000;5.39848000;2023-02-23T14:40:31;16.77;;;7.80;;
7829;SDS011;3960;51.86894000;5.39848000;2023-02-23T14:42:59;13.43;;;7.53;;
7829;SDS011;3960;51.86894000;5.39848000;2023-02-23T14:45:27;14.45;;;7.82;;
7829;SDS011;3960;51.86894000;5.39848000;2023-02-23T14:47:55;17.98;;;7.57;;
7829;SDS011;3960;51.86894000;5.39848000;2023-02-23T14:50:28;17.80;;;10.30;;
7829;SDS011;3960;51.86894000;5.39848000;2023-02-23T14:52:56;18.17;;;9.70;;
7829;SDS011;3960;51.86894000;5.39848000;2023-02-23T14:55:34;18.90;;;10.85;;
7829;SDS011;3960;51.86894000;5.39848000;2023-02-23T14:58:22;18.50;;;10.93;;
7829;SDS011;3960;51.86894000;5.39848000;2023-02-23T15:00:52;16.98;;;9.68;;